sensor_id;sensor_type;location;lat;lon;timestamp;pressure;altitude;pressure_sealevel;temperature;humidity
6433;BME280;3249;42.690;23.260;2023-08-20T00:00:18;94569.75;;;20.51;100.00
6433;BME280;3249;42.690;23.260;2023-08-20T00:02:49;94559.88;;;20.43;100.00
6433;BME280;3249;42.690;23.260;2023-08-20T00:05:21;94565.59;;;20.50;100.00
6433;BME280;3249;42.690;23.260;2023-08-20T00:07:50;94559.88;;;20.43;100.00
6433;BME280;3249;42.690;23.260;2023-08-20T00:10:19;94566.38;;;20.45;100.00
6433;BME280;3249;42.690;23.260;2023-08-20T00:12:48;94565.84;;;20.48;100.00
6433;BME280;3249;42.690;23.260;2023-08-20T00:15:20;94559.34;;;20.46;100.00
6433;BME280;3249;42.690;23.260;2023-08-20T00:17:54;94561.94;;;20.46;100.00
6433;BME280;3249;42.690;23.260;2023-08-20T00:20:24;94560.91;;;20.47;100.00
6433;BME280;3249;42.690;23.260;2023-08-20T00:22:54;94564.28;;;20.52;100.00
6433;BME280;3249;42.690;23.260;2023-08-20T00:25:24;94563.47;;;20.57;100.00
6433;BME280;3249;42.690;23.260;2023-08-20T00:27:53;94563.44;;;20.62;100.00
6433;BME280;3249;42.690;23.260;2023-08-20T00:30:24;94560.03;;;20.61;100.00
6433;BME280;3249;42.690;23.260;2023-08-20T00:32:54;94563.66;;;20.65;100.00
6433;BME280;3249;42.690;23.260;2023-08-20T00:35:23;94557.66;;;20.65;100.00
6433;BME280;3249;42.690;23.260;2023-08-20T00:37:52;94559.22;;;20.66;100.00
6433;BME280;3249;42.690;23.260;2023-08-20T00:40:21;94564.19;;;20.67;100.00
6433;BME280;3249;42.690;23.260;2023-08-20T00:42:50;94560.78;;;20.67;100.00
6433;BME280;3249;42.690;23.260;2023-08-20T00:45:19;94548.00;;;20.60;100.00
6433;BME280;3249;42.690;23.260;2023-08-20T00:47:52;94559.19;;;20.71;100.00
6433;BME280;3249;42.690;23.260;2023-08-20T00:50:22;94561.56;;;20.67;100.00
6433;BME280;3249;42.690;23.260;2023-08-20T00:52:51;94566.28;;;20.65;100.00
6433;BME280;3249;42.690;23.260;2023-08-20T00:55:20;94563.91;;;20.69;100.00
6433;BME280;3249;42.690;23.260;2023-08-20T00:57:49;94560.25;;;20.70;100.00
6433;BME280;3249;42.690;23.260;2023-08-20T01:00:18;94559.72;;;20.68;100.00
6433;BME280;3249;42.690;23.260;2023-08-20T01:02:48;94560.25;;;20.70;100.00
6433;BME280;3249;42.690;23.260;2023-08-20T01:05:20;94567.88;;;20.66;100.00
6433;BME280;3249;42.690;23.260;2023-08-20T01:07:58;94556.34;;;20.67;100.00
6433;BME280;3249;42.690;23.260;2023-08-20T01:10:39;94560.25;;;20.70;100.00
6433;BME280;3249;42.690;23.260;2023-08-20T01:13:09;94555.53;;;20.67;100.00
6433;BME280;3249;42.690;23.260;2023-08-20T01:15:38;94559.72;;;20.68;100.00
6433;BME280;3249;42.690;23.260;2023-08-20T01:18:07;94560.00;;;20.66;100.00
6433;BME280;3249;42.690;23.260;2023-08-20T01:20:43;94546.72;;;20.58;100.00
6433;BME280;3249;42.690;23.260;2023-08-20T01:23:42;94556.09;;;20.64;100.00
6433;BME280;3249;42.690;23.260;2023-08-20T01:26:39;94532.38;;;20.45;100.00
6433;BME280;3249;42.690;23.260;2023-08-20T01:29:12;94556.38;;;20.62;100.00
6433;BME280;3249;42.690;23.260;2023-08-20T01:31:43;94552.97;;;20.62;100.00
6433;BME280;3249;42.690;23.260;2023-08-20T01:34:13;94548.00;;;20.60;100.00
6433;BME280;3249;42.690;23.260;2023-08-20T01:36:44;94543.88;;;20.54;100.00
6433;BME280;3249;42.690;23.260;2023-08-20T01:39:13;94552.22;;;20.56;100.00
6433;BME280;3249;42.690;23.260;2023-08-20T01:41:42;94547.78;;;20.57;100.00
6433;BME280;3249;42.690;23.260;2023-08-20T01:44:14;94537.63;;;20.50;100.00
6433;BME280;3249;42.690;23.260;2023-08-20T01:46:44;94549.59;;;20.56;100.00
6433;BME280;3249;42.690;23.260;2023-08-20T01:49:13;94543.56;;;20.56;100.00
6433;BME280;3249;42.690;23.260;2023-08-20T01:51:42;94533.66;;;20.53;100.00
6433;BME280;3249;42.690;23.260;2023-08-20T01:54:11;94526.34;;;20.50;100.00
6433;BME280;3249;42.690;23.260;2023-08-20T01:56:40;94528.97;;;20.50;100.00
6433;BME280;3249;42.690;23.260;2023-08-20T01:59:10;94538.38;;;20.51;100.00
6433;BME280;3249;42.690;23.260;2023-08-20T02:01:41;94532.88;;;20.52;100.00
6433;BME280;3249;42.690;23.260;2023-08-20T02:04:10;94538.78;;;20.73;100.00
6433;BME280;3249;42.690;23.260;2023-08-20T02:06:39;94536.56;;;20.90;100.00
6433;BME280;3249;42.690;23.260;2023-08-20T02:09:08;94540.19;;;20.99;100.00
6433;BME280;3249;42.690;23.260;2023-08-20T02:11:37;94530.72;;;21.03;100.00
6433;BME280;3249;42.690;23.260;2023-08-20T02:14:06;94535.69;;;21.04;100.00
6433;BME280;3249;42.690;23.260;2023-08-20T02:16:35;94527.03;;;21.04;100.00
6433;BME280;3249;42.690;23.260;2023-08-20T02:19:07;94521.69;;;20.80;100.00
6433;BME280;3249;42.690;23.260;2023-08-20T02:21:37;94493.41;;;20.49;100.00
6433;BME280;3249;42.690;23.260;2023-08-20T02:24:07;94516.34;;;20.62;100.00
6433;BME280;3249;42.690;23.260;2023-08-20T02:26:36;94534.56;;;20.77;100.00
6433;BME280;3249;42.690;23.260;2023-08-20T02:29:05;94526.47;;;20.73;100.00
6433;BME280;3249;42.690;23.260;2023-08-20T02:31:35;94528.63;;;20.66;100.00
6433;BME280;3249;42.690;23.260;2023-08-20T02:34:07;94523.44;;;20.56;100.00
6433;BME280;3249;42.690;23.260;2023-08-20T02:36:36;94526.47;;;20.30;100.00
6433;BME280;3249;42.690;23.260;2023-08-20T02:39:06;94527.06;;;20.17;100.00
6433;BME280;3249;42.690;23.260;2023-08-20T02:41:35;94519.00;;;19.93;100.00
6433;BME280;3249;42.690;23.260;2023-08-20T02:44:05;94535.97;;;20.06;100.00
6433;BME280;3249;42.690;23.260;2023-08-20T02:46:33;94538.59;;;20.01;100.00
6433;BME280;3249;42.690;23.260;2023-08-20T02:49:03;94544.84;;;20.15;100.00
6433;BME280;3249;42.690;23.260;2023-08-20T02:51:35;94542.50;;;20.13;100.00
6433;BME280;3249;42.690;23.260;2023-08-20T02:54:07;94544.34;;;19.98;100.00
6433;BME280;3249;42.690;23.260;2023-08-20T02:56:36;94542.28;;;19.85;100.00
6433;BME280;3249;42.690;23.260;2023-08-20T02:59:05;94538.44;;;19.72;100.00
6433;BME280;3249;42.690;23.260;2023-08-20T03:01:34;94538.50;;;19.12;100.00
6433;BME280;3249;42.690;23.260;2023-08-20T03:04:04;94540.84;;;19.14;100.00
6433;BME280;3249;42.690;23.260;2023-08-20T03:06:36;94544.50;;;19.33;100.00
6433;BME280;3249;42.690;23.260;2023-08-20T03:09:05;94541.91;;;19.28;100.00
6433;BME280;3249;42.690;23.260;2023-08-20T03:11:36;94546.06;;;19.29;100.00
6433;BME280;3249;42.690;23.260;2023-08-20T03:14:04;94541.91;;;19.28;100.00
6433;BME280;3249;42.690;23.260;2023-08-20T03:16:33;94548.97;;;19.27;100.00
6433;BME280;3249;42.690;23.260;2023-08-20T03:19:03;94545.25;;;19.18;100.00
6433;BME280;3249;42.690;23.260;2023-08-20T03:21:32;94539.78;;;19.20;100.00
6433;BME280;3249;42.690;23.260;2023-08-20T03:24:06;94549.69;;;18.93;100.00
6433;BME280;3249;42.690;23.260;2023-08-20T03:26:35;94551.00;;;18.90;100.00
6433;BME280;3249;42.690;23.260;2023-08-20T03:29:04;94542.91;;;18.97;100.00
6433;BME280;3249;42.690;23.260;2023-08-20T03:31:33;94536.38;;;18.64;100.00
6433;BME280;3249;42.690;23.260;2023-08-20T03:34:02;94544.19;;;18.54;100.00
6433;BME280;3249;42.690;23.260;2023-08-20T03:36:31;94529.28;;;18.35;100.00
6433;BME280;3249;42.690;23.260;2023-08-20T03:39:00;94533.47;;;18.36;100.00
6433;BME280;3249;42.690;23.260;2023-08-20T03:41:32;94523.00;;;18.31;100.00
6433;BME280;3249;42.690;23.260;2023-08-20T03:44:04;94524.25;;;18.23;100.00
6433;BME280;3249;42.690;23.260;2023-08-20T03:46:34;94520.84;;;18.17;100.00
6433;BME280;3249;42.690;23.260;2023-08-20T03:49:03;94526.63;;;18.30;100.00
6433;BME280;3249;42.690;23.260;2023-08-20T03:51:32;94522.22;;;18.35;100.00
6433;BME280;3249;42.690;23.260;2023-08-20T03:54:01;94518.28;;;18.33;100.00
6433;BME280;3249;42.690;23.260;2023-08-20T03:56:33;94518.59;;;18.36;100.00
6433;BME280;3249;42.690;23.260;2023-08-20T03:59:03;94520.13;;;18.32;100.00
6433;BME280;3249;42.690;23.260;2023-08-20T04:01:32;94519.16;;;18.63;100.00
6433;BME280;3249;42.690;23.260;2023-08-20T04:04:03;94519.97;;;18.74;100.00
6433;BME280;3249;42.690;23.260;2023-08-20T04:06:32;94520.47;;;19.01;100.00
6433;BME280;3249;42.690;23.260;2023-08-20T04:09:00;94531.44;;;19.28;100.00
6433;BME280;3249;42.690;23.260;2023-08-20T04:11:33;94527.00;;;19.48;100.00
6433;BME280;3249;42.690;23.260;2023-08-20T04:14:03;94521.72;;;19.68;100.00
6433;BME280;3249;42.690;23.260;2023-08-20T04:16:32;94523.38;;;19.39;100.00
6433;BME280;3249;42.690;23.260;2023-08-20T04:19:01;94532.97;;;19.49;100.00
6433;BME280;3249;42.690;23.260;2023-08-20T04:21:29;94531.97;;;19.40;100.00
6433;BME280;3249;42.690;23.260;2023-08-20T04:23:58;94530.69;;;19.32;100.00
6433;BME280;3249;42.690;23.260;2023-08-20T04:26:28;94534.03;;;19.58;100.00
6433;BME280;3249;42.690;23.260;2023-08-20T04:29:00;94526.91;;;19.83;100.00
6433;BME280;3249;42.690;23.260;2023-08-20T04:31:30;94528.03;;;19.42;100.00
6433;BME280;3249;42.690;23.260;2023-08-20T04:34:07;94528.81;;;19.43;100.00
6433;BME280;3249;42.690;23.260;2023-08-20T04:36:49;94536.13;;;19.51;100.00
6433;BME280;3249;42.690;23.260;2023-08-20T04:39:18;94536.63;;;19.53;100.00
6433;BME280;3249;42.690;23.260;2023-08-20T04:41:51;94542.28;;;19.85;100.00
6433;BME280;3249;42.690;23.260;2023-08-20T04:44:26;94547.19;;;20.16;100.00
6433;BME280;3249;42.690;23.260;2023-08-20T04:46:56;94546.03;;;20.37;100.00
6433;BME280;3249;42.690;23.260;2023-08-20T04:49:25;94545.59;;;20.20;100.00
6433;BME280;3249;42.690;23.260;2023-08-20T04:51:55;94537.72;;;20.25;100.00
6433;BME280;3249;42.690;23.260;2023-08-20T04:54:26;94537.53;;;20.17;100.00
6433;BME280;3249;42.690;23.260;2023-08-20T04:56:55;94548.88;;;20.46;100.00
6433;BME280;3249;42.690;23.260;2023-08-20T04:59:26;94542.00;;;20.55;100.00
6433;BME280;3249;42.690;23.260;2023-08-20T05:02:30;94552.94;;;20.67;100.00
6433;BME280;3249;42.690;23.260;2023-08-20T05:05:02;94526.41;;;20.40;100.00
6433;BME280;3249;42.690;23.260;2023-08-20T05:07:31;94546.28;;;20.41;100.00
6433;BME280;3249;42.690;23.260;2023-08-20T05:10:00;94543.25;;;20.19;100.00
6433;BME280;3249;42.690;23.260;2023-08-20T05:12:29;94530.22;;;20.04;100.00
6433;BME280;3249;42.690;23.260;2023-08-20T05:15:01;94539.28;;;20.31;100.00
6433;BME280;3249;42.690;23.260;2023-08-20T05:17:30;94546.91;;;20.71;100.00
6433;BME280;3249;42.690;23.260;2023-08-20T05:19:59;94535.09;;;20.74;100.00
6433;BME280;3249;42.690;23.260;2023-08-20T05:22:29;94550.63;;;20.60;100.00
6433;BME280;3249;42.690;23.260;2023-08-20T05:24:58;94551.41;;;20.56;100.00
6433;BME280;3249;42.690;23.260;2023-08-20T05:27:28;94544.38;;;20.56;100.00
6433;BME280;3249;42.690;23.260;2023-08-20T05:29:57;94553.50;;;20.59;100.00
6433;BME280;3249;42.690;23.260;2023-08-20T05:32:29;94553.47;;;20.69;100.00
6433;BME280;3249;42.690;23.260;2023-08-20T05:34:58;94552.63;;;20.78;100.00
6433;BME280;3249;42.690;23.260;2023-08-20T05:37:27;94569.72;;;21.04;100.00
6433;BME280;3249;42.690;23.260;2023-08-20T05:39:56;94565.44;;;21.47;100.00
6433;BME280;3249;42.690;23.260;2023-08-20T05:42:25;94562.63;;;21.72;100.00
6433;BME280;3249;42.690;23.260;2023-08-20T05:45:01;94569.81;;;21.85;100.00
6433;BME280;3249;42.690;23.260;2023-08-20T05:47:34;94572.00;;;22.02;100.00
6433;BME280;3249;42.690;23.260;2023-08-20T05:50:03;94574.41;;;21.98;100.00
6433;BME280;3249;42.690;23.260;2023-08-20T05:52:34;94577.78;;;21.75;100.00
6433;BME280;3249;42.690;23.260;2023-08-20T05:55:04;94563.03;;;21.84;100.00
6433;BME280;3249;42.690;23.260;2023-08-20T05:57:34;94575.25;;;22.17;100.00
6433;BME280;3249;42.690;23.260;2023-08-20T06:00:04;94550.56;;;22.18;100.00
6433;BME280;3249;42.690;23.260;2023-08-20T06:02:42;94570.22;;;21.97;100.00
6433;BME280;3249;42.690;23.260;2023-08-20T06:05:11;94567.22;;;22.27;100.00
6433;BME280;3249;42.690;23.260;2023-08-20T06:07:40;94573.50;;;22.73;100.00
6433;BME280;3249;42.690;23.260;2023-08-20T06:10:09;94573.44;;;22.36;100.00
6433;BME280;3249;42.690;23.260;2023-08-20T06:12:38;94559.81;;;22.58;100.00
6433;BME280;3249;42.690;23.260;2023-08-20T06:15:08;94569.88;;;22.51;100.00
6433;BME280;3249;42.690;23.260;2023-08-20T06:17:37;94580.88;;;22.71;100.00
6433;BME280;3249;42.690;23.260;2023-08-20T06:20:10;94581.53;;;23.00;100.00
6433;BME280;3249;42.690;23.260;2023-08-20T06:22:40;94583.31;;;23.18;100.00
6433;BME280;3249;42.690;23.260;2023-08-20T06:25:09;94587.97;;;23.26;99.48
6433;BME280;3249;42.690;23.260;2023-08-20T06:27:37;94579.97;;;22.99;99.17
6433;BME280;3249;42.690;23.260;2023-08-20T06:30:07;94582.72;;;23.26;97.51
6433;BME280;3249;42.690;23.260;2023-08-20T06:32:37;94583.53;;;23.40;96.22
6433;BME280;3249;42.690;23.260;2023-08-20T06:35:10;94586.84;;;23.32;99.47
6433;BME280;3249;42.690;23.260;2023-08-20T06:37:39;94592.22;;;23.41;98.71
6433;BME280;3249;42.690;23.260;2023-08-20T06:40:09;94582.94;;;23.30;99.87
6433;BME280;3249;42.690;23.260;2023-08-20T06:42:39;94582.00;;;23.39;99.02
6433;BME280;3249;42.690;23.260;2023-08-20T06:45:09;94577.50;;;23.40;97.98
6433;BME280;3249;42.690;23.260;2023-08-20T06:47:38;94589.22;;;23.47;99.69
6433;BME280;3249;42.690;23.260;2023-08-20T06:50:10;94586.91;;;23.59;94.52
6433;BME280;3249;42.690;23.260;2023-08-20T06:52:39;94593.63;;;23.65;95.14
6433;BME280;3249;42.690;23.260;2023-08-20T06:55:08;94595.66;;;24.00;94.09
6433;BME280;3249;42.690;23.260;2023-08-20T06:57:37;94595.69;;;24.27;89.14
6433;BME280;3249;42.690;23.260;2023-08-20T07:00:07;94593.25;;;24.31;90.97
6433;BME280;3249;42.690;23.260;2023-08-20T07:02:36;94591.78;;;24.52;89.82
6433;BME280;3249;42.690;23.260;2023-08-20T07:05:05;94601.59;;;24.73;83.62
6433;BME280;3249;42.690;23.260;2023-08-20T07:07:37;94597.31;;;24.77;79.99
6433;BME280;3249;42.690;23.260;2023-08-20T07:10:07;94599.50;;;24.97;80.25
6433;BME280;3249;42.690;23.260;2023-08-20T07:12:36;94604.56;;;25.07;77.30
6433;BME280;3249;42.690;23.260;2023-08-20T07:15:07;94590.59;;;25.07;77.05
6433;BME280;3249;42.690;23.260;2023-08-20T07:17:36;94599.41;;;25.24;74.22
6433;BME280;3249;42.690;23.260;2023-08-20T07:20:06;94596.97;;;25.41;69.63
6433;BME280;3249;42.690;23.260;2023-08-20T07:22:38;94603.66;;;25.47;66.41
6433;BME280;3249;42.690;23.260;2023-08-20T07:25:08;94596.97;;;25.41;71.19
6433;BME280;3249;42.690;23.260;2023-08-20T07:27:37;94608.38;;;25.59;69.67
6433;BME280;3249;42.690;23.260;2023-08-20T07:30:09;94608.38;;;25.59;66.81
6433;BME280;3249;42.690;23.260;2023-08-20T07:32:38;94602.88;;;25.47;67.35
6433;BME280;3249;42.690;23.260;2023-08-20T07:35:08;94609.72;;;25.12;71.50
6433;BME280;3249;42.690;23.260;2023-08-20T07:37:40;94602.69;;;25.43;68.73
6433;BME280;3249;42.690;23.260;2023-08-20T07:40:10;94563.25;;;25.16;71.68
6433;BME280;3249;42.690;23.260;2023-08-20T07:42:40;94598.94;;;25.22;73.20
6433;BME280;3249;42.690;23.260;2023-08-20T07:45:10;94601.97;;;25.51;72.35
6433;BME280;3249;42.690;23.260;2023-08-20T07:47:40;94609.38;;;25.71;67.94
6433;BME280;3249;42.690;23.260;2023-08-20T07:50:09;94599.25;;;25.87;68.50
6433;BME280;3249;42.690;23.260;2023-08-20T07:52:41;94578.31;;;25.90;65.83
6433;BME280;3249;42.690;23.260;2023-08-20T07:55:10;94612.38;;;26.40;62.07
6433;BME280;3249;42.690;23.260;2023-08-20T07:57:39;94609.28;;;26.38;60.54
6433;BME280;3249;42.690;23.260;2023-08-20T08:00:10;94621.88;;;26.49;60.54
6433;BME280;3249;42.690;23.260;2023-08-20T08:02:39;94617.53;;;26.53;61.57
6433;BME280;3249;42.690;23.260;2023-08-20T08:05:09;94604.41;;;26.62;59.74
6433;BME280;3249;42.690;23.260;2023-08-20T08:07:42;94609.56;;;26.36;62.77
6433;BME280;3249;42.690;23.260;2023-08-20T08:10:12;94605.69;;;26.34;61.80
6433;BME280;3249;42.690;23.260;2023-08-20T08:12:41;94601.41;;;26.55;62.24
6433;BME280;3249;42.690;23.260;2023-08-20T08:15:10;94605.50;;;26.86;56.78
6433;BME280;3249;42.690;23.260;2023-08-20T08:17:39;94591.91;;;26.54;60.18
6433;BME280;3249;42.690;23.260;2023-08-20T08:20:08;94614.47;;;26.60;59.98
6433;BME280;3249;42.690;23.260;2023-08-20T08:22:37;94613.88;;;26.63;60.69
6433;BME280;3249;42.690;23.260;2023-08-20T08:25:09;94609.63;;;26.14;61.36
6433;BME280;3249;42.690;23.260;2023-08-20T08:27:38;94605.06;;;25.98;61.99
6433;BME280;3249;42.690;23.260;2023-08-20T08:30:07;94611.50;;;26.14;61.39
6433;BME280;3249;42.690;23.260;2023-08-20T08:32:37;94612.84;;;26.42;62.58
6433;BME280;3249;42.690;23.260;2023-08-20T08:35:07;94608.25;;;26.17;56.73
6433;BME280;3249;42.690;23.260;2023-08-20T08:37:36;94602.44;;;26.45;59.18
6433;BME280;3249;42.690;23.260;2023-08-20T08:40:10;94605.44;;;26.52;57.19
6433;BME280;3249;42.690;23.260;2023-08-20T08:42:40;94613.13;;;26.71;50.91
6433;BME280;3249;42.690;23.260;2023-08-20T08:45:09;94604.78;;;26.08;54.66
6433;BME280;3249;42.690;23.260;2023-08-20T08:47:39;94610.38;;;26.37;56.82
6433;BME280;3249;42.690;23.260;2023-08-20T08:50:09;94602.59;;;26.40;56.42
6433;BME280;3249;42.690;23.260;2023-08-20T08:52:39;94606.28;;;26.70;52.59
6433;BME280;3249;42.690;23.260;2023-08-20T08:55:12;94605.19;;;26.71;53.50
6433;BME280;3249;42.690;23.260;2023-08-20T08:57:42;94614.44;;;26.51;46.92
6433;BME280;3249;42.690;23.260;2023-08-20T09:00:12;94585.09;;;26.53;45.35
6433;BME280;3249;42.690;23.260;2023-08-20T09:02:42;94609.84;;;26.82;46.17
6433;BME280;3249;42.690;23.260;2023-08-20T09:05:13;94624.66;;;26.92;45.80
6433;BME280;3249;42.690;23.260;2023-08-20T09:07:43;94585.44;;;26.68;45.39
6433;BME280;3249;42.690;23.260;2023-08-20T09:10:16;94615.47;;;26.89;46.24
6433;BME280;3249;42.690;23.260;2023-08-20T09:12:47;94616.59;;;27.05;45.80
6433;BME280;3249;42.690;23.260;2023-08-20T09:15:16;94613.16;;;26.96;45.19
6433;BME280;3249;42.690;23.260;2023-08-20T09:17:46;94608.03;;;27.08;42.99
6433;BME280;3249;42.690;23.260;2023-08-20T09:20:15;94612.78;;;26.64;44.51
6433;BME280;3249;42.690;23.260;2023-08-20T09:22:48;94618.69;;;26.61;44.08
6433;BME280;3249;42.690;23.260;2023-08-20T09:25:20;94607.88;;;26.40;45.65
6433;BME280;3249;42.690;23.260;2023-08-20T09:27:49;94612.13;;;26.58;44.56
6433;BME280;3249;42.690;23.260;2023-08-20T09:30:18;94609.22;;;26.68;43.02
6433;BME280;3249;42.690;23.260;2023-08-20T09:33:03;94612.66;;;26.77;42.82
6433;BME280;3249;42.690;23.260;2023-08-20T09:35:33;94609.88;;;26.91;41.61
6433;BME280;3249;42.690;23.260;2023-08-20T09:38:03;94619.25;;;27.14;41.82
6433;BME280;3249;42.690;23.260;2023-08-20T09:40:35;94614.59;;;27.19;44.21
6433;BME280;3249;42.690;23.260;2023-08-20T09:43:05;94608.38;;;27.24;42.43
6433;BME280;3249;42.690;23.260;2023-08-20T09:45:37;94607.31;;;27.25;41.87
6433;BME280;3249;42.690;23.260;2023-08-20T09:48:09;94601.97;;;27.08;41.81
6433;BME280;3249;42.690;23.260;2023-08-20T09:50:40;94595.63;;;27.34;39.69
6433;BME280;3249;42.690;23.260;2023-08-20T09:53:18;94617.88;;;27.25;41.88
6433;BME280;3249;42.690;23.260;2023-08-20T09:55:56;94601.19;;;27.16;42.15
6433;BME280;3249;42.690;23.260;2023-08-20T09:58:30;94592.66;;;27.02;39.56
6433;BME280;3249;42.690;23.260;2023-08-20T10:01:00;94602.47;;;27.35;39.90
6433;BME280;3249;42.690;23.260;2023-08-20T10:03:30;94600.56;;;27.19;39.49
6433;BME280;3249;42.690;23.260;2023-08-20T10:06:00;94597.47;;;27.51;40.20
6433;BME280;3249;42.690;23.260;2023-08-20T10:08:29;94610.56;;;27.47;39.06
6433;BME280;3249;42.690;23.260;2023-08-20T10:11:01;94603.38;;;27.48;39.55
6433;BME280;3249;42.690;23.260;2023-08-20T10:13:30;94601.66;;;27.69;37.67
6433;BME280;3249;42.690;23.260;2023-08-20T10:15:59;94599.97;;;27.47;37.71
6433;BME280;3249;42.690;23.260;2023-08-20T10:18:28;94614.16;;;27.34;37.10
6433;BME280;3249;42.690;23.260;2023-08-20T10:20:58;94612.44;;;27.38;37.06
6433;BME280;3249;42.690;23.260;2023-08-20T10:23:27;94601.53;;;27.48;36.88
6433;BME280;3249;42.690;23.260;2023-08-20T10:26:09;94613.97;;;27.65;37.35
6433;BME280;3249;42.690;23.260;2023-08-20T10:28:40;94599.53;;;27.37;36.82
6433;BME280;3249;42.690;23.260;2023-08-20T10:31:10;94598.72;;;27.53;37.68
6433;BME280;3249;42.690;23.260;2023-08-20T10:33:49;94599.94;;;27.64;36.95
6433;BME280;3249;42.690;23.260;2023-08-20T10:36:20;94603.50;;;27.85;35.65
6433;BME280;3249;42.690;23.260;2023-08-20T10:38:53;94600.66;;;27.99;36.16
6433;BME280;3249;42.690;23.260;2023-08-20T10:41:28;94591.06;;;27.86;36.77
6433;BME280;3249;42.690;23.260;2023-08-20T10:44:00;94586.09;;;27.76;35.36
6433;BME280;3249;42.690;23.260;2023-08-20T10:46:29;94587.59;;;27.94;35.96
6433;BME280;3249;42.690;23.260;2023-08-20T10:49:03;94585.16;;;28.26;35.46
6433;BME280;3249;42.690;23.260;2023-08-20T10:51:33;94582.41;;;28.14;37.10
6433;BME280;3249;42.690;23.260;2023-08-20T10:54:05;94591.69;;;28.29;37.15
6433;BME280;3249;42.690;23.260;2023-08-20T10:56:42;94586.69;;;27.90;36.88
6433;BME280;3249;42.690;23.260;2023-08-20T10:59:14;94586.88;;;27.85;35.99
6433;BME280;3249;42.690;23.260;2023-08-20T11:01:45;94587.22;;;28.12;35.39
6433;BME280;3249;42.690;23.260;2023-08-20T11:04:16;94573.66;;;28.14;34.68
6433;BME280;3249;42.690;23.260;2023-08-20T11:06:46;94579.44;;;28.16;35.95
6433;BME280;3249;42.690;23.260;2023-08-20T11:09:15;94563.59;;;28.07;35.71
6433;BME280;3249;42.690;23.260;2023-08-20T11:11:47;94574.75;;;28.21;35.45
6433;BME280;3249;42.690;23.260;2023-08-20T11:14:18;94585.56;;;28.37;35.48
6433;BME280;3249;42.690;23.260;2023-08-20T11:16:48;94574.19;;;28.36;34.84
6433;BME280;3249;42.690;23.260;2023-08-20T11:19:20;94577.47;;;28.42;34.54
6433;BME280;3249;42.690;23.260;2023-08-20T11:21:50;94568.41;;;28.43;34.68
6433;BME280;3249;42.690;23.260;2023-08-20T11:24:19;94586.94;;;28.51;34.29
6433;BME280;3249;42.690;23.260;2023-08-20T11:26:53;94580.31;;;28.28;34.06
6433;BME280;3249;42.690;23.260;2023-08-20T11:29:25;94585.00;;;28.23;33.64
6433;BME280;3249;42.690;23.260;2023-08-20T11:31:58;94566.00;;;28.29;34.55
6433;BME280;3249;42.690;23.260;2023-08-20T11:34:29;94555.50;;;28.41;34.76
6433;BME280;3249;42.690;23.260;2023-08-20T11:37:01;94569.09;;;28.23;34.23
6433;BME280;3249;42.690;23.260;2023-08-20T11:39:30;94568.47;;;28.26;34.48
6433;BME280;3249;42.690;23.260;2023-08-20T11:42:02;94560.22;;;28.27;34.63
6433;BME280;3249;42.690;23.260;2023-08-20T11:44:42;94552.34;;;28.48;34.86
6433;BME280;3249;42.690;23.260;2023-08-20T11:47:15;94552.44;;;28.60;34.39
6433;BME280;3249;42.690;23.260;2023-08-20T11:49:45;94563.34;;;28.58;35.16
6433;BME280;3249;42.690;23.260;2023-08-20T11:52:14;94548.75;;;28.73;34.66
6433;BME280;3249;42.690;23.260;2023-08-20T11:54:44;94563.13;;;28.72;34.40
6433;BME280;3249;42.690;23.260;2023-08-20T11:57:17;94550.00;;;28.75;35.65
6433;BME280;3249;42.690;23.260;2023-08-20T11:59:47;94563.44;;;28.70;34.88
6433;BME280;3249;42.690;23.260;2023-08-20T12:02:25;94530.34;;;28.56;36.08
6433;BME280;3249;42.690;23.260;2023-08-20T12:04:55;94547.72;;;28.86;36.63
6433;BME280;3249;42.690;23.260;2023-08-20T12:07:25;94540.88;;;28.85;35.60
6433;BME280;3249;42.690;23.260;2023-08-20T12:09:58;94539.91;;;28.89;35.65
6433;BME280;3249;42.690;23.260;2023-08-20T12:12:51;94543.47;;;28.93;37.10
6433;BME280;3249;42.690;23.260;2023-08-20T12:15:20;94524.13;;;28.93;35.96
6433;BME280;3249;42.690;23.260;2023-08-20T12:18:00;94533.97;;;29.33;34.86
6433;BME280;3249;42.690;23.260;2023-08-20T12:20:31;94517.91;;;29.30;35.18
6433;BME280;3249;42.690;23.260;2023-08-20T12:23:02;94534.59;;;29.30;36.28
6433;BME280;3249;42.690;23.260;2023-08-20T12:25:33;94528.72;;;29.04;34.85
6433;BME280;3249;42.690;23.260;2023-08-20T12:28:05;94547.88;;;29.10;35.71
6433;BME280;3249;42.690;23.260;2023-08-20T12:30:35;94533.59;;;29.02;35.55
6433;BME280;3249;42.690;23.260;2023-08-20T12:33:05;94523.63;;;29.20;35.69
6433;BME280;3249;42.690;23.260;2023-08-20T12:35:34;94526.66;;;29.30;37.08
6433;BME280;3249;42.690;23.260;2023-08-20T12:38:04;94520.03;;;29.04;35.19
6433;BME280;3249;42.690;23.260;2023-08-20T12:40:33;94522.66;;;29.36;35.52
6433;BME280;3249;42.690;23.260;2023-08-20T12:43:05;94531.25;;;29.54;35.01
6433;BME280;3249;42.690;23.260;2023-08-20T12:45:34;94527.69;;;29.50;35.22
6433;BME280;3249;42.690;23.260;2023-08-20T12:48:04;94534.41;;;29.68;34.20
6433;BME280;3249;42.690;23.260;2023-08-20T12:50:35;94533.34;;;29.16;35.36
6433;BME280;3249;42.690;23.260;2023-08-20T12:53:04;94519.94;;;29.12;36.36
6433;BME280;3249;42.690;23.260;2023-08-20T12:55:33;94515.53;;;28.96;35.31
6433;BME280;3249;42.690;23.260;2023-08-20T12:58:02;94522.47;;;29.09;35.73
6433;BME280;3249;42.690;23.260;2023-08-20T13:00:34;94504.28;;;28.99;36.58
6433;BME280;3249;42.690;23.260;2023-08-20T13:03:04;94515.09;;;29.14;36.00
6433;BME280;3249;42.690;23.260;2023-08-20T13:05:34;94516.44;;;29.20;35.94
6433;BME280;3249;42.690;23.260;2023-08-20T13:08:04;94466.03;;;28.67;35.37
6433;BME280;3249;42.690;23.260;2023-08-20T13:10:33;94510.75;;;29.10;35.93
6433;BME280;3249;42.690;23.260;2023-08-20T13:13:04;94520.72;;;29.13;35.54
6433;BME280;3249;42.690;23.260;2023-08-20T13:15:36;94501.09;;;29.26;35.45
6433;BME280;3249;42.690;23.260;2023-08-20T13:18:07;94517.50;;;29.40;35.04
6433;BME280;3249;42.690;23.260;2023-08-20T13:20:36;94515.31;;;29.54;35.89
6433;BME280;3249;42.690;23.260;2023-08-20T13:23:05;94508.78;;;29.51;35.60